Terminal Aerodrome Forecast
Issued by NWS

Home | Current Version | Previous Version | Text Only | Print | Product List | Glossary On
Versions: 1 2 3 4 5 6 7 8 9 10 11 12 13 14 15 16 17 18 19 20 21 22 23 24 25 26 27 28 29
750
FTUS41 KBTV 091732
TAFSLK
TAF
KSLK 091732Z 0918/1018 29009KT P6SM -SHSN BKN025 OVC035
      TEMPO 0918/0922 3SM -SN BR OVC025
     FM092200 29009KT P6SM VCSH OVC025
     FM100300 28005KT P6SM VCSH OVC045
     FM100900 VRB03KT P6SM VCSH OVC030
     FM101600 26004KT P6SM OVC025=

USA.gov is the U.S. government's official web portal to all federal, state and local government web resources and services.